Time;durP1;ratioP1;P1;durP2;ratioP2;P2;SDS_P1;SDS_P2;PMS_P1;PMS_P2;Temp;Humidity;BMP_temperature;BMP_pressure;BME280_temperature;BME280_humidity;BME280_pressure;Samples;Min_cycle;Max_cycle;Signal;HPM_P1;HPM_P2
2022/06/14 00:00:53;;;;;;;2.83;1.60;;;;;;;15.22;52.07;101036.47;5042188;28;20053;-70
2022/06/14 00:03:28;;;;;;;3.20;1.60;;;;;;;15.33;52.10;101060.75;5038246;28;20057;-71
2022/06/14 00:05:57;;;;;;;3.63;1.40;;;;;;;15.25;51.94;101058.53;5027024;28;20478;-70
2022/06/14 00:08:25;;;;;;;4.03;1.67;;;;;;;15.26;52.36;101054.03;5033612;28;20053;-70
2022/06/14 00:10:54;;;;;;;3.78;1.45;;;;;;;15.25;52.22;101060.31;5039837;28;20443;-70
2022/06/14 00:13:21;;;;;;;6.63;1.60;;;;;;;15.22;52.45;101064.03;5038167;28;20481;-71
2022/06/14 00:15:49;;;;;;;3.25;1.55;;;;;;;15.18;52.49;101064.28;5039690;28;20478;-71
2022/06/14 00:18:16;;;;;;;4.85;1.42;;;;;;;15.14;52.77;101063.56;5039745;28;20336;-72
2022/06/14 00:20:45;;;;;;;4.38;1.80;;;;;;;15.12;53.04;101062.78;5037352;28;20397;-72
2022/06/14 00:23:12;;;;;;;3.42;1.98;;;;;;;15.09;53.35;101065.66;5039935;28;20045;-73
2022/06/14 00:25:47;;;;;;;4.63;1.65;;;;;;;14.98;53.66;101054.69;5038489;28;20064;-70
2022/06/14 00:28:16;;;;;;;4.28;1.75;;;;;;;15.12;53.16;101061.94;5040765;28;20477;-70
2022/06/14 00:30:46;;;;;;;3.58;1.40;;;;;;;15.09;52.87;101061.19;5040452;28;20099;-70
2022/06/14 00:33:12;;;;;;;3.08;1.70;;;;;;;15.05;53.08;101056.09;5023812;28;20544;-73
2022/06/14 00:35:40;;;;;;;2.90;1.50;;;;;;;14.86;53.39;101029.56;5037378;28;20057;-71
2022/06/14 00:38:07;;;;;;;5.88;1.70;;;;;;;15.05;53.29;101046.28;5037920;28;20069;-71
2022/06/14 00:40:36;;;;;;;6.55;1.30;;;;;;;15.15;53.18;101053.75;5037625;28;20057;-70
2022/06/14 00:43:12;;;;;;;4.72;1.90;;;;;;;15.08;53.41;101045.25;5041036;28;20053;-71
2022/06/14 00:45:39;;;;;;;4.50;1.80;;;;;;;14.97;53.61;101013.81;5040104;28;20049;-70
2022/06/14 00:48:11;;;;;;;4.10;1.80;;;;;;;15.18;53.28;101051.78;5038954;28;20102;-70
2022/06/14 00:50:51;;;;;;;3.13;1.45;;;;;;;15.12;53.62;101049.44;5021659;28;20040;-73
2022/06/14 00:53:40;;;;;;;3.33;1.55;;;;;;;14.92;53.85;101036.38;5040827;28;20045;-72
2022/06/14 00:56:18;;;;;;;3.33;1.90;;;;;;;14.85;54.18;101043.84;5040234;28;20041;-70
2022/06/14 00:58:50;;;;;;;4.50;1.65;;;;;;;14.81;54.67;101068.06;5039630;28;20060;-71
2022/06/14 01:01:32;;;;;;;2.75;1.70;;;;;;;14.62;54.82;101042.44;5041204;28;20685;-72
2022/06/14 01:04:08;;;;;;;3.67;1.50;;;;;;;14.69;54.87;101051.81;5040340;28;20615;-70
2022/06/14 01:07:01;;;;;;;2.97;1.38;;;;;;;14.68;54.89;101051.88;5040126;28;20045;-71
2022/06/14 01:09:43;;;;;;;2.67;1.65;;;;;;;14.74;54.87;101062.22;5037421;28;20087;-72
2022/06/14 01:12:15;;;;;;;2.22;1.50;;;;;;;14.67;55.04;101055.47;5043182;28;20057;-72
2022/06/14 01:14:51;;;;;;;3.67;1.58;;;;;;;14.65;54.84;101062.69;5041899;28;20048;-72
2022/06/14 01:17:18;;;;;;;4.75;1.60;;;;;;;14.68;55.09;101058.06;5046360;28;20179;-72
2022/06/14 01:19:45;;;;;;;4.40;1.70;;;;;;;14.71;54.70;101062.38;5043196;28;20076;-71
2022/06/14 01:22:11;;;;;;;4.47;1.60;;;;;;;14.73;54.93;101065.84;5042676;28;20056;-72
2022/06/14 01:24:42;;;;;;;4.15;1.90;;;;;;;14.64;54.94;101060.97;5041315;28;20448;-71
2022/06/14 01:27:13;;;;;;;2.53;1.73;;;;;;;14.54;55.33;101057.94;5045976;28;20057;-72
2022/06/14 01:29:42;;;;;;;;;;;;;;;14.49;55.64;101057.31;5052666;28;20072;-71
2022/06/14 01:32:11;;;;;;;3.38;1.50;;;;;;;14.50;55.77;101052.84;5048149;28;19964;-71
2022/06/14 01:34:47;;;;;;;2.53;1.50;;;;;;;14.42;55.77;101039.09;5047403;28;20690;-71
2022/06/14 01:37:14;;;;;;;3.85;1.50;;;;;;;14.36;55.72;101043.75;5045435;28;20480;-71
2022/06/14 01:39:41;;;;;;;2.83;1.45;;;;;;;14.21;56.13;101025.91;5045814;28;20098;-72
2022/06/14 01:42:23;;;;;;;3.25;1.77;;;;;;;14.30;56.36;101051.22;5025417;28;20041;-72
2022/06/14 01:45:17;;;;;;;3.17;1.73;;;;;;;14.17;56.09;101050.09;5044462;28;20079;-71
2022/06/14 01:47:49;;;;;;;4.50;1.50;;;;;;;14.08;56.99;101051.44;5046298;28;20077;-71
2022/06/14 01:53:21;;;;;;;3.63;1.58;;;;;;;14.07;57.46;101039.06;5048695;28;20080;-72
2022/06/14 01:55:56;;;;;;;4.03;1.45;;;;;;;14.06;57.39;101037.34;5048300;28;20489;-72
2022/06/14 01:58:34;;;;;;;2.20;1.23;;;;;;;14.03;57.72;101041.03;5053092;28;20141;-72
2022/06/14 02:01:34;;;;;;;4.20;1.92;;;;;;;14.01;58.15;101024.25;5046486;28;20473;-71
2022/06/14 02:04:47;;;;;;;3.28;1.40;;;;;;;14.10;57.93;101038.91;5043948;28;20434;-72
2022/06/14 02:07:28;;;;;;;2.20;1.40;;;;;;;14.10;57.68;101044.25;5000062;28;20076;-70
2022/06/14 02:10:36;;;;;;;3.78;1.90;;;;;;;14.12;57.87;101045.03;5041871;28;20088;-70
2022/06/14 02:13:19;;;;;;;6.13;1.50;;;;;;;14.07;58.07;101040.88;5013534;28;20041;-72
2022/06/14 02:16:06;;;;;;;3.92;1.73;;;;;;;14.08;58.08;101040.78;5042215;28;21222;-71
2022/06/14 02:18:45;;;;;;;4.97;1.60;;;;;;;14.01;58.09;101023.41;5039833;28;20102;-70
2022/06/14 02:21:28;;;;;;;2.50;1.80;;;;;;;14.00;58.30;101032.34;5042570;28;20049;-70
2022/06/14 02:24:17;;;;;;;4.25;1.75;;;;;;;13.95;58.80;101029.06;5044098;28;20055;-71
2022/06/14 02:27:09;;;;;;;3.33;1.60;;;;;;;13.81;58.65;101032.41;5043894;28;20409;-71
2022/06/14 02:29:53;;;;;;;3.03;1.73;;;;;;;13.75;59.33;101032.72;5044806;28;20594;-71
2022/06/14 02:32:29;;;;;;;3.05;1.85;;;;;;;13.61;59.49;101017.44;5041288;28;20041;-71
2022/06/14 02:35:04;;;;;;;1.95;1.55;;;;;;;13.64;59.54;101035.91;5042981;28;20421;-71
2022/06/14 02:37:41;;;;;;;3.22;1.75;;;;;;;13.51;59.74;101039.25;5043754;28;20133;-72
2022/06/14 02:40:30;;;;;;;4.82;1.80;;;;;;;13.22;60.34;101011.41;5042388;28;20041;-71
2022/06/14 02:43:08;;;;;;;5.80;2.20;;;;;;;13.35;60.76;101047.13;5042793;28;20053;-71
2022/06/14 02:45:44;;;;;;;3.60;1.85;;;;;;;13.21;61.43;101022.97;5044095;28;20048;-70
2022/06/14 02:48:23;;;;;;;3.90;1.80;;;;;;;13.34;61.46;101042.72;5038691;28;20423;-71
2022/06/14 02:50:56;;;;;;;;;;;;;;;13.28;61.06;101041.22;5043763;28;20072;-71
2022/06/14 02:53:48;;;;;;;3.85;1.85;;;;;;;13.22;61.38;101040.66;5041895;28;19935;-70
2022/06/14 02:56:25;;;;;;;4.03;1.90;;;;;;;13.14;62.19;101037.47;5032415;28;20077;-71
2022/06/14 02:58:58;;;;;;;3.85;1.90;;;;;;;13.13;62.38;101036.59;5040678;28;20053;-71
2022/06/14 03:01:25;;;;;;;5.93;2.10;;;;;;;13.26;62.18;101039.56;5042158;28;20049;-71
2022/06/14 03:03:57;;;;;;;6.55;2.10;;;;;;;13.23;62.17;101024.59;5046282;28;20056;-70
2022/06/14 03:06:32;;;;;;;2.22;1.52;;;;;;;13.23;62.01;101040.56;5044119;28;20448;-70
2022/06/14 03:09:36;;;;;;;5.22;2.08;;;;;;;13.26;61.75;101047.53;5041594;28;20048;-71
2022/06/14 03:12:34;;;;;;;4.70;1.50;;;;;;;13.21;61.57;101044.25;4978382;28;20042;-72
2022/06/14 03:15:26;;;;;;;4.18;1.92;;;;;;;13.15;62.32;101041.88;5044665;28;20386;-71
2022/06/14 03:17:57;;;;;;;5.13;2.17;;;;;;;13.06;62.29;101037.84;5040342;28;20068;-70
2022/06/14 03:20:32;;;;;;;5.68;1.80;;;;;;;13.03;63.13;101042.44;5043995;28;20807;-72
2022/06/14 03:23:08;;;;;;;4.18;1.70;;;;;;;13.02;63.18;101046.88;5037802;28;20040;-70
2022/06/14 03:25:43;;;;;;;5.80;2.08;;;;;;;12.79;63.51;101021.34;5042496;28;20056;-70
2022/06/14 03:28:14;;;;;;;4.38;2.20;;;;;;;12.88;64.08;101050.19;5041002;28;20045;-70
2022/06/14 03:31:07;;;;;;;5.85;2.10;;;;;;;12.83;64.56;101052.19;5039458;28;20122;-72
2022/06/14 03:34:08;;;;;;;6.53;2.38;;;;;;;12.79;64.26;101025.81;5042701;28;20147;-70
2022/06/14 03:36:35;;;;;;;3.97;1.83;;;;;;;12.98;63.97;101054.13;5003011;28;20459;-71
2022/06/14 03:39:08;;;;;;;4.95;1.85;;;;;;;12.89;63.62;101041.28;5040780;28;20446;-72
2022/06/14 03:41:38;;;;;;;6.35;2.30;;;;;;;12.95;63.65;101056.06;5043470;28;20493;-71
2022/06/14 03:44:05;;;;;;;4.43;1.90;;;;;;;12.81;63.78;101038.09;5040578;28;20451;-71
2022/06/14 03:46:39;;;;;;;6.22;1.92;;;;;;;12.72;64.01;101029.69;5040410;28;20045;-72
2022/06/14 03:49:17;;;;;;;3.28;1.92;;;;;;;12.81;64.23;101054.03;5040691;28;20052;-72
2022/06/14 03:52:05;;;;;;;3.17;2.00;;;;;;;12.75;64.71;101054.31;5040896;28;20072;-70
2022/06/14 03:54:47;;;;;;;4.43;2.15;;;;;;;12.70;64.88;101051.03;5037714;28;20143;-71
2022/06/14 03:57:32;;;;;;;5.72;2.20;;;;;;;12.69;65.13;101054.59;5039866;28;20489;-75
2022/06/14 04:00:12;;;;;;;5.25;2.10;;;;;;;12.70;65.41;101058.13;5022857;28;20033;-71
2022/06/14 04:03:10;;;;;;;4.18;1.95;;;;;;;12.70;65.38;101056.34;5041763;28;20114;-71
2022/06/14 04:05:37;;;;;;;4.63;2.53;;;;;;;12.66;65.84;101057.41;5040459;28;20129;-71
2022/06/14 04:08:21;;;;;;;4.22;2.20;;;;;;;12.67;66.11;101056.47;5040877;28;20056;-71
2022/06/14 04:10:59;;;;;;;4.43;2.22;;;;;;;12.63;65.90;101054.88;5040001;28;20060;-71
2022/06/14 04:13:45;;;;;;;6.25;2.28;;;;;;;12.63;66.63;101053.06;5043090;28;20512;-71
2022/06/14 04:16:31;;;;;;;5.28;2.25;;;;;;;12.61;66.37;101054.06;5040396;28;20068;-71
2022/06/14 04:19:27;;;;;;;6.07;2.70;;;;;;;12.62;66.50;101050.47;5042405;28;20045;-71
2022/06/14 04:22:35;;;;;;;3.72;2.72;;;;;;;12.60;66.62;101055.00;5043725;28;20052;-70
2022/06/14 04:25:10;;;;;;;7.22;2.60;;;;;;;12.52;67.22;101051.84;5041431;28;20083;-71
2022/06/14 04:27:53;;;;;;;5.03;2.40;;;;;;;12.57;67.38;101058.69;5040952;28;20099;-71
2022/06/14 04:30:30;;;;;;;6.15;2.70;;;;;;;12.65;66.94;101067.16;5037821;28;20048;-71
2022/06/14 04:33:05;;;;;;;5.18;2.72;;;;;;;12.73;67.55;101071.28;5039918;28;20045;-71
2022/06/14 04:35:38;;;;;;;6.90;2.80;;;;;;;12.70;67.81;101060.78;5044032;28;20064;-71
2022/06/14 04:38:31;;;;;;;5.05;2.40;;;;;;;12.75;67.74;101067.59;5024089;28;20130;-71
2022/06/14 04:41:03;;;;;;;4.45;2.60;;;;;;;12.82;67.60;101070.84;5041206;28;20052;-71
2022/06/14 04:43:35;;;;;;;4.95;2.55;;;;;;;12.87;67.25;101067.06;5041127;28;20219;-71
2022/06/14 04:46:13;;;;;;;5.03;2.63;;;;;;;12.88;67.47;101050.19;5048009;28;20053;-71
2022/06/14 04:48:49;;;;;;;4.95;2.55;;;;;;;12.91;67.72;101047.34;5044286;28;20044;-71
2022/06/14 04:51:29;;;;;;;3.78;2.55;;;;;;;13.10;67.54;101054.47;5044969;28;20073;-71
2022/06/14 04:54:26;;;;;;;7.70;2.78;;;;;;;13.28;66.82;101051.84;5044167;28;20106;-71
2022/06/14 04:57:11;;;;;;;3.65;2.30;;;;;;;13.34;65.54;101046.25;5028974;28;20044;-71
2022/06/14 04:59:59;;;;;;;5.35;2.20;;;;;;;13.43;64.91;101036.94;5044228;28;20053;-71
2022/06/14 05:02:46;;;;;;;4.38;2.28;;;;;;;13.65;65.17;101060.72;5058940;28;20110;-71
2022/06/14 05:05:33;;;;;;;6.60;2.45;;;;;;;13.72;63.54;101056.81;5059047;28;20083;-71
2022/06/14 05:08:13;;;;;;;5.35;2.20;;;;;;;13.75;62.96;101054.00;5042888;28;20052;-71
2022/06/14 05:10:58;;;;;;;5.38;2.30;;;;;;;13.84;63.22;101064.22;5042122;28;20037;-71
2022/06/14 05:13:50;;;;;;;5.93;2.58;;;;;;;13.94;62.31;101059.28;5044077;28;20045;-71
2022/06/14 05:16:24;;;;;;;4.43;2.50;;;;;;;13.95;62.09;101061.00;5040019;28;20087;-71
2022/06/14 05:18:59;;;;;;;4.43;2.13;;;;;;;13.95;62.48;101066.31;5042792;28;20052;-70
2022/06/14 05:21:49;;;;;;;4.80;2.10;;;;;;;13.98;62.25;101063.53;5055075;28;20037;-70
2022/06/14 05:24:17;;;;;;;4.07;2.50;;;;;;;14.00;61.90;101054.53;5043365;28;20108;-72
2022/06/14 05:27:12;;;;;;;7.93;2.60;;;;;;;14.13;62.06;101060.06;5044328;28;20118;-75
2022/06/14 05:29:57;;;;;;;4.80;2.25;;;;;;;14.25;60.85;101059.44;5020301;28;20059;-72
2022/06/14 05:32:48;;;;;;;5.93;1.90;;;;;;;14.35;59.77;101054.47;5040061;28;20154;-74
2022/06/14 05:35:52;;;;;;;5.30;1.85;;;;;;;14.18;59.04;101031.38;5044701;28;20095;-73
2022/06/14 05:38:29;;;;;;;4.68;2.00;;;;;;;14.35;59.22;101057.16;5042165;28;20053;-73
2022/06/14 05:41:08;;;;;;;18.55;2.60;;;;;;;14.38;59.06;101059.66;5019849;28;20053;-72
2022/06/14 05:43:54;;;;;;;6.88;2.10;;;;;;;14.29;58.63;101044.16;5044472;28;20445;-73
2022/06/14 05:46:33;;;;;;;5.63;2.15;;;;;;;14.43;59.09;101062.13;5041162;28;20049;-74
2022/06/14 05:49:16;;;;;;;3.67;2.28;;;;;;;14.44;59.46;101054.06;5043605;28;20049;-75
2022/06/14 05:51:50;;;;;;;7.25;2.50;;;;;;;14.44;59.62;101032.75;5044257;28;20053;-72
2022/06/14 05:54:30;;;;;;;4.90;2.10;;;;;;;14.68;59.72;101054.53;5035927;28;20053;-75
2022/06/14 05:57:07;;;;;;;4.43;1.73;;;;;;;14.84;58.79;101054.59;5040701;28;20073;-74
2022/06/14 05:59:48;;;;;;;4.57;2.25;;;;;;;14.85;58.27;101041.16;5040908;28;20072;-74
2022/06/14 06:02:30;;;;;;;6.80;2.03;;;;;;;15.05;58.06;101050.75;5038719;28;20564;-75
2022/06/14 06:05:19;;;;;;;3.15;1.67;;;;;;;15.24;56.90;101050.59;5038225;28;20484;-73
2022/06/14 06:07:55;;;;;;;3.72;1.83;;;;;;;15.43;56.26;101049.47;5039459;28;20110;-74
2022/06/14 06:10:31;;;;;;;5.05;1.92;;;;;;;15.64;55.37;101050.09;5038696;28;20132;-74
2022/06/14 06:13:09;;;;;;;4.95;1.90;;;;;;;15.81;54.90;101048.25;5041508;28;20078;-74
2022/06/14 06:15:54;;;;;;;7.55;1.80;;;;;;;16.03;53.38;101030.88;5044040;28;20056;-74
2022/06/14 06:18:37;;;;;;;7.53;2.30;;;;;;;16.51;52.34;101046.72;5018056;28;20064;-74
2022/06/14 06:21:23;;;;;;;4.70;1.60;;;;;;;16.87;51.29;101051.63;5040382;28;20124;-74
2022/06/14 06:24:20;;;;;;;8.43;1.88;;;;;;;17.31;50.01;101049.69;5040890;28;20079;-72
2022/06/14 06:26:55;;;;;;;6.35;1.75;;;;;;;17.88;48.38;101050.34;5019798;28;20104;-74
2022/06/14 06:29:31;;;;;;;5.03;1.77;;;;;;;18.13;48.05;101046.00;5044477;28;20045;-74
2022/06/14 06:31:59;;;;;;;3.60;1.63;;;;;;;18.29;47.72;101065.44;5039756;28;20048;-75
2022/06/14 06:34:28;;;;;;;5.70;1.93;;;;;;;18.61;46.59;101054.34;5036051;28;20056;-74
2022/06/14 06:37:13;;;;;;;5.63;1.73;;;;;;;18.98;45.60;101053.47;5038907;28;20470;-73
2022/06/14 06:39:59;;;;;;;11.13;1.90;;;;;;;18.87;46.05;101056.94;5050205;28;20060;-74
2022/06/14 06:42:45;;;;;;;5.28;2.00;;;;;;;19.01;45.54;101052.41;5038584;28;20667;-73
2022/06/14 06:45:14;;;;;;;4.32;1.60;;;;;;;19.32;45.50;101062.66;5037933;28;20113;-74
2022/06/14 06:47:44;;;;;;;4.13;1.95;;;;;;;19.53;43.99;101050.34;5041318;28;20417;-74
2022/06/14 06:50:25;;;;;;;5.25;1.85;;;;;;;19.76;45.43;101056.69;5048075;28;20052;-73
2022/06/14 06:53:04;;;;;;;4.22;1.70;;;;;;;19.88;45.96;101055.78;5046913;28;20052;-75
2022/06/14 06:55:41;;;;;;;5.93;1.73;;;;;;;19.78;45.64;101064.66;5047326;28;20076;-74
2022/06/14 06:58:25;;;;;;;3.27;1.30;;;;;;;19.70;46.46;101046.41;5049375;28;20434;-75
2022/06/14 07:00:56;;;;;;;3.15;1.50;;;;;;;19.90;45.16;101044.91;5041743;28;20699;-75
2022/06/14 07:04:00;;;;;;;3.72;1.75;;;;;;;20.04;43.73;101052.78;5043644;28;20072;-74
2022/06/14 07:06:33;;;;;;;7.38;2.10;;;;;;;20.41;43.24;101042.78;5025662;28;20061;-74
2022/06/14 07:09:14;;;;;;;3.05;1.70;;;;;;;20.80;42.05;101040.63;5026850;28;20072;-74
2022/06/14 07:11:55;;;;;;;8.35;1.23;;;;;;;21.11;41.89;101045.25;5048332;28;20072;-73
2022/06/14 07:14:22;;;;;;;4.70;1.83;;;;;;;21.34;40.26;101040.75;5053558;28;20053;-74
2022/06/14 07:16:55;;;;;;;5.88;1.58;;;;;;;21.54;40.18;101039.13;5054554;28;20142;-74
2022/06/14 07:19:36;;;;;;;6.10;1.40;;;;;;;21.52;40.29;101031.16;5043338;28;20041;-72
2022/06/14 07:22:17;;;;;;;3.33;1.30;;;;;;;21.86;39.34;101031.91;5045346;28;20071;-72
2022/06/14 07:24:55;;;;;;;7.88;1.73;;;;;;;21.87;39.46;101009.34;5043118;28;20052;-73
2022/06/14 07:27:59;;;;;;;5.43;1.60;;;;;;;22.08;38.27;101014.75;5051970;28;20053;-73
2022/06/14 07:30:32;;;;;;;4.25;1.33;;;;;;;21.99;39.07;101023.63;5034156;28;20133;-75
2022/06/14 07:33:00;;;;;;;2.72;1.15;;;;;;;21.62;39.44;101024.00;5057875;28;20041;-75
2022/06/14 07:35:34;;;;;;;4.10;1.40;;;;;;;21.57;40.02;101018.13;5041969;28;20083;-74
2022/06/14 07:38:02;;;;;;;5.28;2.10;;;;;;;21.79;39.65;101021.75;5039970;28;20057;-74
2022/06/14 07:40:57;;;;;;;4.53;1.55;;;;;;;21.85;39.41;101026.63;5043734;28;20134;-74
2022/06/14 07:43:27;;;;;;;6.32;1.75;;;;;;;21.85;40.01;101024.78;5043645;28;20550;-73
2022/06/14 07:45:58;;;;;;;5.97;1.43;;;;;;;21.70;40.07;101004.50;5041405;28;20052;-73
2022/06/14 07:48:37;;;;;;;8.60;1.70;;;;;;;21.99;38.55;101019.13;5044449;28;20072;-73
2022/06/14 07:51:25;;;;;;;4.78;1.95;;;;;;;21.96;39.55;101024.72;5043715;28;20109;-73
2022/06/14 07:54:02;;;;;;;5.72;1.42;;;;;;;22.07;38.38;101018.44;5044144;28;20091;-72
2022/06/14 07:57:08;;;;;;;3.40;1.60;;;;;;;22.52;37.04;101021.72;5038688;28;20146;-73
2022/06/14 07:59:51;;;;;;;4.78;1.63;;;;;;;22.70;37.35;101009.31;5045916;28;20454;-74
2022/06/14 08:02:47;;;;;;;3.80;1.40;;;;;;;22.64;37.42;100990.13;5042388;28;20052;-74
2022/06/14 08:05:24;;;;;;;5.32;1.60;;;;;;;22.67;36.99;101009.59;5026557;28;20072;-72
2022/06/14 08:07:55;;;;;;;4.50;1.42;;;;;;;22.60;37.05;101005.72;5022287;28;20371;-75
2022/06/14 08:10:28;;;;;;;8.75;1.77;;;;;;;22.54;38.02;101011.66;5035437;28;21582;-74
2022/06/14 08:13:02;;;;;;;6.43;1.55;;;;;;;22.70;36.89;100987.72;5040308;28;20049;-74
2022/06/14 08:15:34;;;;;;;3.58;1.13;;;;;;;23.08;36.80;100992.44;5040488;28;20580;-74
2022/06/14 08:18:11;;;;;;;6.28;1.25;;;;;;;23.47;35.18;101003.31;5042737;28;20486;-73
2022/06/14 08:20:49;;;;;;;5.88;1.83;;;;;;;23.59;35.46;101004.09;5044134;28;20079;-71
2022/06/14 08:23:29;;;;;;;5.70;1.48;;;;;;;23.69;35.32;100980.63;5042899;28;20409;-74
2022/06/14 08:26:18;;;;;;;5.25;1.70;;;;;;;23.87;35.18;100984.31;5040773;28;20700;-73
2022/06/14 08:29:13;;;;;;;5.78;1.50;;;;;;;23.43;35.61;100999.22;5041561;28;20698;-74
2022/06/14 08:31:50;;;;;;;4.50;1.50;;;;;;;22.97;36.90;101003.38;5039047;28;20045;-74
2022/06/14 08:34:38;;;;;;;3.85;1.70;;;;;;;22.91;37.07;101003.91;5038797;28;20702;-73
2022/06/14 08:37:22;;;;;;;8.65;1.77;;;;;;;22.43;37.11;101000.94;5040334;28;20048;-73
2022/06/14 08:39:59;;;;;;;5.57;1.73;;;;;;;21.77;38.30;100997.59;5042585;28;20077;-73
2022/06/14 08:42:36;;;;;;;4.32;1.50;;;;;;;21.45;38.92;101000.28;5036844;28;21034;-74
2022/06/14 08:45:11;;;;;;;4.43;1.58;;;;;;;21.52;38.96;101006.03;5039707;28;20058;-75
2022/06/14 08:47:42;;;;;;;4.50;1.50;;;;;;;21.78;38.15;101003.84;5028890;28;20045;-73
2022/06/14 08:50:31;;;;;;;4.35;1.70;;;;;;;22.03;37.68;101001.69;5042224;28;20433;-73
2022/06/14 08:53:16;;;;;;;6.15;1.67;;;;;;;22.51;37.20;100994.91;5041432;28;20390;-71
2022/06/14 08:55:52;;;;;;;5.15;1.50;;;;;;;22.99;36.21;100992.41;5039110;28;20143;-72
2022/06/14 08:58:25;;;;;;;4.82;1.75;;;;;;;23.26;36.17;100989.09;5038931;28;20535;-72
2022/06/14 09:00:59;;;;;;;2.78;1.52;;;;;;;23.51;34.13;100998.50;5043207;28;20571;-72
2022/06/14 09:03:49;;;;;;;5.90;1.25;;;;;;;23.56;31.07;100989.00;5035608;28;20547;-72
2022/06/14 09:06:28;;;;;;;;;;;;;;;23.69;31.56;100991.44;5037059;28;20067;-72
2022/06/14 09:09:22;;;;;;;6.20;1.60;;;;;;;23.76;31.86;100987.19;5033710;28;19939;-72
2022/06/14 09:12:02;;;;;;;4.00;1.30;;;;;;;23.86;32.23;100977.19;5041478;28;20091;-72
2022/06/14 09:14:58;;;;;;;4.10;1.50;;;;;;;24.26;32.63;100979.72;5042636;28;20057;-73
2022/06/14 09:17:53;;;;;;;4.00;1.50;;;;;;;24.62;30.96;100980.75;5045349;28;20045;-73
2022/06/14 09:20:55;;;;;;;3.53;1.25;;;;;;;24.54;31.49;100977.94;5041962;28;20400;-74
2022/06/14 09:24:04;;;;;;;4.63;1.60;;;;;;;24.01;31.62;100954.13;5047800;28;20057;-74
2022/06/14 09:26:49;;;;;;;5.07;2.30;;;;;;;23.79;32.03;100981.47;5021280;28;20107;-74
2022/06/14 09:29:27;;;;;;;7.03;1.67;;;;;;;23.53;32.64;100966.81;5040693;28;20685;-73
2022/06/14 09:32:24;;;;;;;4.65;1.80;;;;;;;23.26;33.23;100968.31;5043591;28;20056;-73
2022/06/14 09:35:28;;;;;;;3.70;1.67;;;;;;;22.79;33.63;100969.03;5044075;28;20045;-73
2022/06/14 09:38:30;;;;;;;3.92;1.35;;;;;;;22.64;34.37;100972.09;5041414;28;20219;-74
2022/06/14 09:41:18;;;;;;;6.57;1.55;;;;;;;22.69;34.01;100963.56;5042262;28;20528;-74
2022/06/14 09:44:00;;;;;;;3.95;1.67;;;;;;;22.74;34.76;100958.59;5039561;28;20106;-73
2022/06/14 09:46:46;;;;;;;5.25;1.88;;;;;;;22.82;34.06;100963.38;5043257;28;20456;-74
2022/06/14 09:49:43;;;;;;;3.97;1.50;;;;;;;22.50;34.27;100961.66;5041301;28;20052;-73
2022/06/14 09:52:28;;;;;;;5.40;1.88;;;;;;;22.32;33.73;100958.72;5043751;28;20129;-73
2022/06/14 09:55:29;;;;;;;7.10;1.88;;;;;;;22.19;34.75;100957.22;5044323;28;20056;-74
2022/06/14 09:58:41;;;;;;;2.72;1.60;;;;;;;22.31;34.08;100948.06;5039884;28;20106;-74
2022/06/14 10:01:33;;;;;;;4.72;1.38;;;;;;;22.60;32.98;100949.03;5008109;28;20047;-73
2022/06/14 10:04:20;;;;;;;3.75;1.80;;;;;;;22.55;33.56;100942.31;5046792;28;20509;-73
2022/06/14 10:07:25;;;;;;;6.80;1.70;;;;;;;22.52;32.97;100946.16;5043222;28;20481;-74
2022/06/14 10:10:06;;;;;;;3.17;1.52;;;;;;;22.49;33.02;100941.03;5024655;28;20045;-73
2022/06/14 10:12:49;;;;;;;6.75;2.05;;;;;;;22.39;33.79;100934.72;5043793;28;20045;-74
2022/06/14 10:15:34;;;;;;;3.58;1.63;;;;;;;22.55;33.71;100935.09;5041732;28;20581;-73
2022/06/14 10:18:17;;;;;;;4.68;1.60;;;;;;;22.59;34.17;100941.06;5043832;28;20076;-74
2022/06/14 10:21:02;;;;;;;4.03;1.90;;;;;;;22.53;33.53;100934.38;5055184;28;20059;-73
2022/06/14 10:23:45;;;;;;;3.45;1.70;;;;;;;22.63;33.75;100926.31;5043938;28;20049;-74
2022/06/14 10:29:41;;;;;;;;;;;;;;;23.00;32.59;100915.78;5044986;28;20152;-73
2022/06/14 10:32:08;;;;;;;6.20;1.50;;;;;;;23.14;32.95;100917.25;5031011;28;19928;-73
2022/06/14 10:34:40;;;;;;;3.05;1.30;;;;;;;23.33;32.33;100914.53;5046251;28;20558;-73
2022/06/14 10:37:45;;;;;;;3.28;1.27;;;;;;;23.37;32.03;100913.28;5043178;28;20122;-73
2022/06/14 10:40:31;;;;;;;5.30;1.52;;;;;;;23.20;31.91;100906.72;5012388;28;20099;-79
2022/06/14 10:43:10;;;;;;;3.03;1.48;;;;;;;23.18;31.58;100905.16;5042714;28;20132;-75
2022/06/14 10:45:57;;;;;;;5.03;2.08;;;;;;;23.00;32.16;100883.38;5041845;28;20045;-73
2022/06/14 10:48:33;;;;;;;5.95;1.85;;;;;;;22.90;31.85;100877.09;5042812;28;20059;-74
2022/06/14 10:51:29;;;;;;;3.22;1.92;;;;;;;23.08;32.06;100886.25;5038060;28;20214;-72
2022/06/14 10:54:15;;;;;;;5.07;1.50;;;;;;;23.26;32.08;100900.75;5038521;28;20679;-74
2022/06/14 10:56:56;;;;;;;3.55;1.33;;;;;;;23.17;32.29;100885.38;5040794;28;20041;-75
2022/06/14 10:59:45;;;;;;;3.42;1.50;;;;;;;23.35;31.45;100899.03;5043106;28;20053;-75
2022/06/14 11:02:30;;;;;;;6.00;1.65;;;;;;;23.41;31.50;100885.84;5039867;28;20073;-74
2022/06/14 11:05:40;;;;;;;6.10;2.00;;;;;;;23.56;31.17;100877.31;5046615;28;20094;-73
2022/06/14 11:08:26;;;;;;;6.35;1.92;;;;;;;23.71;30.79;100867.75;5038813;28;20506;-75
2022/06/14 11:11:08;;;;;;;7.50;1.85;;;;;;;23.99;29.82;100871.38;5042954;28;20052;-73
2022/06/14 11:13:59;;;;;;;5.30;1.52;;;;;;;24.10;29.00;100876.63;5044923;28;20089;-72
2022/06/14 11:16:32;;;;;;;6.22;1.83;;;;;;;24.14;28.96;100873.47;5044186;28;20132;-74
2022/06/14 11:22:07;;;;;;;5.00;1.58;;;;;;;24.28;28.22;100860.50;5037405;28;20079;-73
2022/06/14 11:24:59;;;;;;;2.83;1.50;;;;;;;24.23;28.55;100860.06;5042979;28;20048;-75
2022/06/14 11:28:04;;;;;;;5.03;1.48;;;;;;;24.29;29.13;100857.63;5048544;28;20041;-73
2022/06/14 11:30:45;;;;;;;2.67;1.67;;;;;;;24.46;28.41;100850.59;5038272;28;20084;-73
2022/06/14 11:33:27;;;;;;;5.43;1.67;;;;;;;24.47;28.58;100817.94;5042200;28;20080;-74
2022/06/14 11:36:12;;;;;;;4.50;1.48;;;;;;;24.61;28.53;100830.13;5036694;28;20119;-74
2022/06/14 11:39:11;;;;;;;7.50;1.67;;;;;;;24.81;28.89;100838.97;5036136;28;20378;-73
2022/06/14 11:41:44;;;;;;;2.97;1.58;;;;;;;24.91;27.57;100828.06;5031018;28;20060;-73
2022/06/14 11:44:41;;;;;;;3.58;1.20;;;;;;;25.03;27.82;100832.28;5037099;28;20103;-74
2022/06/14 11:47:26;;;;;;;2.60;1.30;;;;;;;24.93;28.13;100831.47;5038599;28;20144;-74
2022/06/14 11:50:13;;;;;;;3.08;1.15;;;;;;;24.73;28.48;100818.06;5037061;28;20095;-73
2022/06/14 11:52:46;;;;;;;8.07;1.70;;;;;;;24.84;27.89;100830.56;5044495;28;20084;-73
2022/06/14 11:55:24;;;;;;;5.38;1.10;;;;;;;24.88;27.43;100839.19;5041823;28;20471;-74
2022/06/14 11:58:19;;;;;;;6.75;1.20;;;;;;;24.94;27.28;100828.66;5047028;28;20146;-72
2022/06/14 12:01:06;;;;;;;2.73;1.27;;;;;;;24.86;26.89;100798.75;5040561;28;20681;-75
2022/06/14 12:03:57;;;;;;;2.45;1.30;;;;;;;24.93;27.22;100831.47;5044365;28;20187;-77
2022/06/14 12:06:37;;;;;;;5.93;1.27;;;;;;;24.99;26.58;100828.19;5039078;28;20570;-73
2022/06/14 12:09:49;;;;;;;4.97;1.27;;;;;;;25.06;27.01;100821.97;5042996;28;20713;-74
2022/06/14 12:12:41;;;;;;;4.50;1.20;;;;;;;25.10;26.72;100820.66;5004326;28;20041;-74
2022/06/14 12:15:21;;;;;;;3.63;1.20;;;;;;;24.99;26.90;100814.66;5020349;28;20191;-73
2022/06/14 12:18:01;;;;;;;4.88;1.55;;;;;;;25.01;26.51;100818.06;5041119;28;20049;-74
2022/06/14 12:20:34;;;;;;;1.77;1.10;;;;;;;25.03;27.38;100818.72;5044914;28;20504;-75
2022/06/14 12:23:31;;;;;;;2.65;0.98;;;;;;;24.87;27.20;100815.84;5039883;28;20037;-73
2022/06/14 12:26:37;;;;;;;5.80;1.40;;;;;;;24.69;27.10;100808.56;5045271;28;20386;-73
2022/06/14 12:29:20;;;;;;;4.35;1.08;;;;;;;24.66;27.36;100810.72;5047389;28;20049;-75
2022/06/14 12:31:53;;;;;;;2.17;1.10;;;;;;;24.78;26.64;100799.50;5044164;28;20524;-74
2022/06/14 12:34:24;;;;;;;3.35;1.23;;;;;;;25.06;26.42;100805.72;5040271;28;20045;-75
2022/06/14 12:37:24;;;;;;;3.03;1.10;;;;;;;25.16;26.62;100811.94;5033897;28;20045;-74
2022/06/14 12:40:06;;;;;;;2.30;1.27;;;;;;;25.01;26.54;100799.09;5037152;28;20053;-75
2022/06/14 12:43:00;;;;;;;3.30;1.58;;;;;;;24.97;26.21;100805.81;5051003;28;20045;-74